sensor_id;sensor_type;location;lat;lon;timestamp;temperature;humidity
12408;DHT22;6268;48.188;17.134;2023-02-13T00:01:35;5.80;99.90
12408;DHT22;6268;48.188;17.134;2023-02-13T00:04:04;5.80;99.90
12408;DHT22;6268;48.188;17.134;2023-02-13T00:06:33;5.80;99.90
12408;DHT22;6268;48.188;17.134;2023-02-13T00:09:02;5.80;99.90
12408;DHT22;6268;48.188;17.134;2023-02-13T00:11:33;5.80;99.90
12408;DHT22;6268;48.188;17.134;2023-02-13T00:14:02;5.80;99.90
12408;DHT22;6268;48.188;17.134;2023-02-13T00:16:32;5.80;99.90
12408;DHT22;6268;48.188;17.134;2023-02-13T00:19:01;5.80;99.90
12408;DHT22;6268;48.188;17.134;2023-02-13T00:21:30;5.80;99.90
12408;DHT22;6268;48.188;17.134;2023-02-13T00:23:59;5.80;99.90
12408;DHT22;6268;48.188;17.134;2023-02-13T00:26:28;5.70;99.90
12408;DHT22;6268;48.188;17.134;2023-02-13T00:28:57;5.60;99.90
12408;DHT22;6268;48.188;17.134;2023-02-13T00:31:26;5.60;99.90
12408;DHT22;6268;48.188;17.134;2023-02-13T00:33:56;5.60;99.90
12408;DHT22;6268;48.188;17.134;2023-02-13T00:36:25;5.60;99.90
12408;DHT22;6268;48.188;17.134;2023-02-13T00:38:54;5.70;99.90
12408;DHT22;6268;48.188;17.134;2023-02-13T00:41:23;5.70;99.90
12408;DHT22;6268;48.188;17.134;2023-02-13T00:43:52;5.80;99.90
12408;DHT22;6268;48.188;17.134;2023-02-13T00:46:21;5.80;99.90
12408;DHT22;6268;48.188;17.134;2023-02-13T00:48:50;5.80;99.90
12408;DHT22;6268;48.188;17.134;2023-02-13T00:51:21;5.80;99.90
12408;DHT22;6268;48.188;17.134;2023-02-13T00:53:49;5.80;99.90
12408;DHT22;6268;48.188;17.134;2023-02-13T00:56:18;5.80;99.90
12408;DHT22;6268;48.188;17.134;2023-02-13T00:58:47;5.80;99.90
12408;DHT22;6268;48.188;17.134;2023-02-13T01:01:16;5.70;99.90
12408;DHT22;6268;48.188;17.134;2023-02-13T01:03:45;5.70;99.90
12408;DHT22;6268;48.188;17.134;2023-02-13T01:06:14;5.60;99.90
12408;DHT22;6268;48.188;17.134;2023-02-13T01:08:44;5.60;99.90
12408;DHT22;6268;48.188;17.134;2023-02-13T01:11:13;5.60;99.90
12408;DHT22;6268;48.188;17.134;2023-02-13T01:13:42;5.60;99.90
12408;DHT22;6268;48.188;17.134;2023-02-13T01:16:11;5.60;99.90
12408;DHT22;6268;48.188;17.134;2023-02-13T01:18:42;5.60;99.90
12408;DHT22;6268;48.188;17.134;2023-02-13T01:21:15;5.70;99.90
12408;DHT22;6268;48.188;17.134;2023-02-13T01:23:47;5.60;99.90
12408;DHT22;6268;48.188;17.134;2023-02-13T01:26:18;5.60;99.90
12408;DHT22;6268;48.188;17.134;2023-02-13T01:28:51;5.60;99.90
12408;DHT22;6268;48.188;17.134;2023-02-13T01:31:21;5.60;99.90
12408;DHT22;6268;48.188;17.134;2023-02-13T01:33:50;5.50;99.90
12408;DHT22;6268;48.188;17.134;2023-02-13T01:36:19;5.50;99.90
12408;DHT22;6268;48.188;17.134;2023-02-13T01:38:52;5.50;99.90
12408;DHT22;6268;48.188;17.134;2023-02-13T01:41:22;5.50;99.90
12408;DHT22;6268;48.188;17.134;2023-02-13T01:43:53;5.40;99.90
12408;DHT22;6268;48.188;17.134;2023-02-13T01:46:28;5.40;99.90
12408;DHT22;6268;48.188;17.134;2023-02-13T01:49:03;5.30;99.90
12408;DHT22;6268;48.188;17.134;2023-02-13T01:51:37;5.30;99.90
12408;DHT22;6268;48.188;17.134;2023-02-13T01:54:12;5.40;99.90
12408;DHT22;6268;48.188;17.134;2023-02-13T01:56:47;5.40;99.90
12408;DHT22;6268;48.188;17.134;2023-02-13T01:59:20;5.30;99.90
12408;DHT22;6268;48.188;17.134;2023-02-13T02:01:52;5.30;99.90
12408;DHT22;6268;48.188;17.134;2023-02-13T02:04:25;5.20;99.90
12408;DHT22;6268;48.188;17.134;2023-02-13T02:07:01;5.20;99.90
12408;DHT22;6268;48.188;17.134;2023-02-13T02:09:37;5.10;99.90
12408;DHT22;6268;48.188;17.134;2023-02-13T02:12:12;5.10;99.90
12408;DHT22;6268;48.188;17.134;2023-02-13T02:14:48;5.10;99.90
12408;DHT22;6268;48.188;17.134;2023-02-13T02:17:21;5.10;99.90
12408;DHT22;6268;48.188;17.134;2023-02-13T02:19:59;5.10;99.90
12408;DHT22;6268;48.188;17.134;2023-02-13T02:23:08;5.10;99.90
12408;DHT22;6268;48.188;17.134;2023-02-13T02:29:00;5.20;99.90
12408;DHT22;6268;48.188;17.134;2023-02-13T02:35:19;5.10;99.90
12408;DHT22;6268;48.188;17.134;2023-02-13T02:38:07;5.20;99.90
12408;DHT22;6268;48.188;17.134;2023-02-13T02:40:54;5.10;99.90
12408;DHT22;6268;48.188;17.134;2023-02-13T02:43:43;5.10;99.90
12408;DHT22;6268;48.188;17.134;2023-02-13T02:46:26;5.10;99.90
12408;DHT22;6268;48.188;17.134;2023-02-13T02:49:05;5.00;99.90
12408;DHT22;6268;48.188;17.134;2023-02-13T02:52:08;4.80;99.90
12408;DHT22;6268;48.188;17.134;2023-02-13T02:54:47;4.80;99.90
12408;DHT22;6268;48.188;17.134;2023-02-13T02:57:39;4.70;99.90
12408;DHT22;6268;48.188;17.134;2023-02-13T03:00:32;4.70;99.90
12408;DHT22;6268;48.188;17.134;2023-02-13T03:03:22;4.70;99.90
12408;DHT22;6268;48.188;17.134;2023-02-13T03:06:15;4.60;99.90
12408;DHT22;6268;48.188;17.134;2023-02-13T03:08:52;4.40;99.90
12408;DHT22;6268;48.188;17.134;2023-02-13T03:11:43;4.30;99.90
12408;DHT22;6268;48.188;17.134;2023-02-13T03:14:29;4.20;99.90
12408;DHT22;6268;48.188;17.134;2023-02-13T03:16:58;4.20;99.90
12408;DHT22;6268;48.188;17.134;2023-02-13T03:19:59;4.20;99.90
12408;DHT22;6268;48.188;17.134;2023-02-13T03:23:02;4.10;99.90
12408;DHT22;6268;48.188;17.134;2023-02-13T03:29:07;3.90;99.90
12408;DHT22;6268;48.188;17.134;2023-02-13T03:32:02;4.00;99.90
12408;DHT22;6268;48.188;17.134;2023-02-13T03:34:49;4.00;99.90
12408;DHT22;6268;48.188;17.134;2023-02-13T03:37:54;3.90;99.90
12408;DHT22;6268;48.188;17.134;2023-02-13T03:40:35;4.00;99.90
12408;DHT22;6268;48.188;17.134;2023-02-13T03:43:38;3.90;99.90
12408;DHT22;6268;48.188;17.134;2023-02-13T03:46:11;3.90;99.90
12408;DHT22;6268;48.188;17.134;2023-02-13T03:48:43;3.80;99.90
12408;DHT22;6268;48.188;17.134;2023-02-13T03:51:35;3.80;99.90
12408;DHT22;6268;48.188;17.134;2023-02-13T03:54:16;3.80;99.90
12408;DHT22;6268;48.188;17.134;2023-02-13T03:56:49;3.90;99.90
12408;DHT22;6268;48.188;17.134;2023-02-13T03:59:37;3.90;99.90
12408;DHT22;6268;48.188;17.134;2023-02-13T04:02:10;3.90;99.90
12408;DHT22;6268;48.188;17.134;2023-02-13T04:04:47;3.80;99.90
12408;DHT22;6268;48.188;17.134;2023-02-13T04:07:20;3.80;99.90
12408;DHT22;6268;48.188;17.134;2023-02-13T04:10:02;3.80;99.90
12408;DHT22;6268;48.188;17.134;2023-02-13T04:12:38;3.80;99.90
12408;DHT22;6268;48.188;17.134;2023-02-13T04:15:15;3.80;99.90
12408;DHT22;6268;48.188;17.134;2023-02-13T04:17:50;3.80;99.90
12408;DHT22;6268;48.188;17.134;2023-02-13T04:20:26;3.80;99.90
12408;DHT22;6268;48.188;17.134;2023-02-13T04:22:55;3.80;99.90
12408;DHT22;6268;48.188;17.134;2023-02-13T04:25:25;3.80;99.90
12408;DHT22;6268;48.188;17.134;2023-02-13T04:27:54;3.70;99.90
12408;DHT22;6268;48.188;17.134;2023-02-13T04:30:23;3.70;99.90
12408;DHT22;6268;48.188;17.134;2023-02-13T04:32:52;3.70;99.90
12408;DHT22;6268;48.188;17.134;2023-02-13T04:35:21;3.70;99.90
12408;DHT22;6268;48.188;17.134;2023-02-13T04:37:50;3.70;99.90
12408;DHT22;6268;48.188;17.134;2023-02-13T04:40:19;3.70;99.90
12408;DHT22;6268;48.188;17.134;2023-02-13T04:42:50;3.60;99.90
12408;DHT22;6268;48.188;17.134;2023-02-13T04:45:19;3.60;99.90
12408;DHT22;6268;48.188;17.134;2023-02-13T04:47:51;3.60;99.90
12408;DHT22;6268;48.188;17.134;2023-02-13T04:50:22;3.50;99.90
12408;DHT22;6268;48.188;17.134;2023-02-13T04:52:53;3.50;99.90
12408;DHT22;6268;48.188;17.134;2023-02-13T04:55:24;3.50;99.90
12408;DHT22;6268;48.188;17.134;2023-02-13T04:57:56;3.50;99.90
12408;DHT22;6268;48.188;17.134;2023-02-13T05:00:27;3.50;99.90
12408;DHT22;6268;48.188;17.134;2023-02-13T05:03:01;3.50;99.90
12408;DHT22;6268;48.188;17.134;2023-02-13T05:05:32;3.40;99.90
12408;DHT22;6268;48.188;17.134;2023-02-13T05:08:01;3.30;99.90
12408;DHT22;6268;48.188;17.134;2023-02-13T05:10:31;3.30;99.90
12408;DHT22;6268;48.188;17.134;2023-02-13T05:13:02;3.30;99.90
12408;DHT22;6268;48.188;17.134;2023-02-13T05:15:31;3.30;99.90
12408;DHT22;6268;48.188;17.134;2023-02-13T05:18:00;3.20;99.90
12408;DHT22;6268;48.188;17.134;2023-02-13T05:20:28;3.20;99.90
12408;DHT22;6268;48.188;17.134;2023-02-13T05:22:58;3.20;99.90
12408;DHT22;6268;48.188;17.134;2023-02-13T05:25:44;3.40;99.90
12408;DHT22;6268;48.188;17.134;2023-02-13T05:28:15;3.40;99.90
12408;DHT22;6268;48.188;17.134;2023-02-13T05:31:01;3.30;99.90
12408;DHT22;6268;48.188;17.134;2023-02-13T05:33:30;3.30;99.90
12408;DHT22;6268;48.188;17.134;2023-02-13T05:35:59;3.20;99.90
12408;DHT22;6268;48.188;17.134;2023-02-13T05:38:28;3.20;99.90
12408;DHT22;6268;48.188;17.134;2023-02-13T05:40:58;3.20;99.90
12408;DHT22;6268;48.188;17.134;2023-02-13T05:43:28;3.20;99.90
12408;DHT22;6268;48.188;17.134;2023-02-13T05:46:02;3.10;99.90
12408;DHT22;6268;48.188;17.134;2023-02-13T05:48:32;3.10;99.90
12408;DHT22;6268;48.188;17.134;2023-02-13T05:51:01;3.20;99.90
12408;DHT22;6268;48.188;17.134;2023-02-13T05:53:31;3.20;99.90
12408;DHT22;6268;48.188;17.134;2023-02-13T05:56:02;3.20;99.90
12408;DHT22;6268;48.188;17.134;2023-02-13T05:58:34;3.20;99.90
12408;DHT22;6268;48.188;17.134;2023-02-13T06:01:04;3.20;99.90
12408;DHT22;6268;48.188;17.134;2023-02-13T06:03:33;3.30;99.90
12408;DHT22;6268;48.188;17.134;2023-02-13T06:06:02;3.30;99.90
12408;DHT22;6268;48.188;17.134;2023-02-13T06:08:31;3.20;99.90
12408;DHT22;6268;48.188;17.134;2023-02-13T06:11:00;3.20;99.90
12408;DHT22;6268;48.188;17.134;2023-02-13T06:13:30;3.20;99.90
12408;DHT22;6268;48.188;17.134;2023-02-13T06:16:00;3.30;99.90
12408;DHT22;6268;48.188;17.134;2023-02-13T06:18:29;3.30;99.90
12408;DHT22;6268;48.188;17.134;2023-02-13T06:20:57;3.40;99.90
12408;DHT22;6268;48.188;17.134;2023-02-13T06:23:26;3.40;99.90
12408;DHT22;6268;48.188;17.134;2023-02-13T06:25:55;3.40;99.90
12408;DHT22;6268;48.188;17.134;2023-02-13T06:28:24;3.40;99.90
12408;DHT22;6268;48.188;17.134;2023-02-13T06:30:53;3.40;99.90
12408;DHT22;6268;48.188;17.134;2023-02-13T06:33:24;3.50;99.90
12408;DHT22;6268;48.188;17.134;2023-02-13T06:35:53;3.50;99.90
12408;DHT22;6268;48.188;17.134;2023-02-13T06:38:22;3.50;99.90
12408;DHT22;6268;48.188;17.134;2023-02-13T06:40:51;3.60;99.90
12408;DHT22;6268;48.188;17.134;2023-02-13T06:43:19;3.60;99.90
12408;DHT22;6268;48.188;17.134;2023-02-13T06:45:48;3.70;99.90
12408;DHT22;6268;48.188;17.134;2023-02-13T06:48:17;3.70;99.90
12408;DHT22;6268;48.188;17.134;2023-02-13T06:50:48;3.70;99.90
12408;DHT22;6268;48.188;17.134;2023-02-13T06:53:18;3.80;99.90
12408;DHT22;6268;48.188;17.134;2023-02-13T06:55:51;3.80;99.90
12408;DHT22;6268;48.188;17.134;2023-02-13T06:58:21;3.80;99.90
12408;DHT22;6268;48.188;17.134;2023-02-13T07:00:51;3.80;99.90
12408;DHT22;6268;48.188;17.134;2023-02-13T07:03:21;3.80;99.90
12408;DHT22;6268;48.188;17.134;2023-02-13T07:05:51;3.90;99.90
12408;DHT22;6268;48.188;17.134;2023-02-13T07:08:20;3.80;99.90
12408;DHT22;6268;48.188;17.134;2023-02-13T07:10:48;3.80;99.90
12408;DHT22;6268;48.188;17.134;2023-02-13T07:13:17;3.80;99.90
12408;DHT22;6268;48.188;17.134;2023-02-13T07:15:46;3.90;99.90
12408;DHT22;6268;48.188;17.134;2023-02-13T07:18:15;3.90;99.90
12408;DHT22;6268;48.188;17.134;2023-02-13T07:20:44;3.90;99.90
12408;DHT22;6268;48.188;17.134;2023-02-13T07:23:15;3.90;99.90
12408;DHT22;6268;48.188;17.134;2023-02-13T07:25:43;4.00;99.90
12408;DHT22;6268;48.188;17.134;2023-02-13T07:28:12;4.00;99.90
12408;DHT22;6268;48.188;17.134;2023-02-13T07:30:41;4.10;99.90
12408;DHT22;6268;48.188;17.134;2023-02-13T07:33:10;4.10;99.90
12408;DHT22;6268;48.188;17.134;2023-02-13T07:35:45;4.20;99.90
12408;DHT22;6268;48.188;17.134;2023-02-13T07:38:16;4.30;99.90
12408;DHT22;6268;48.188;17.134;2023-02-13T07:40:45;4.30;99.90
12408;DHT22;6268;48.188;17.134;2023-02-13T07:43:14;4.40;99.90
12408;DHT22;6268;48.188;17.134;2023-02-13T07:45:43;4.50;99.90
12408;DHT22;6268;48.188;17.134;2023-02-13T07:48:12;4.60;99.90
12408;DHT22;6268;48.188;17.134;2023-02-13T07:50:42;4.70;99.90
12408;DHT22;6268;48.188;17.134;2023-02-13T07:53:10;4.70;99.90
12408;DHT22;6268;48.188;17.134;2023-02-13T07:55:41;4.90;99.90
12408;DHT22;6268;48.188;17.134;2023-02-13T07:58:10;4.90;99.90
12408;DHT22;6268;48.188;17.134;2023-02-13T08:00:39;5.00;99.90
12408;DHT22;6268;48.188;17.134;2023-02-13T08:03:09;5.10;99.90
12408;DHT22;6268;48.188;17.134;2023-02-13T08:05:38;5.20;99.90
12408;DHT22;6268;48.188;17.134;2023-02-13T08:08:08;5.20;99.90
12408;DHT22;6268;48.188;17.134;2023-02-13T08:10:37;5.30;99.90
12408;DHT22;6268;48.188;17.134;2023-02-13T08:13:27;5.30;99.90
12408;DHT22;6268;48.188;17.134;2023-02-13T08:15:56;5.40;99.90
12408;DHT22;6268;48.188;17.134;2023-02-13T08:18:25;5.50;99.90
12408;DHT22;6268;48.188;17.134;2023-02-13T08:20:54;5.60;99.90
12408;DHT22;6268;48.188;17.134;2023-02-13T08:23:22;5.60;99.90
12408;DHT22;6268;48.188;17.134;2023-02-13T08:25:51;5.70;99.90
12408;DHT22;6268;48.188;17.134;2023-02-13T08:28:21;5.70;99.90
12408;DHT22;6268;48.188;17.134;2023-02-13T08:30:52;5.70;99.90
12408;DHT22;6268;48.188;17.134;2023-02-13T08:33:21;5.80;99.90
12408;DHT22;6268;48.188;17.134;2023-02-13T08:35:50;5.90;99.90
12408;DHT22;6268;48.188;17.134;2023-02-13T08:38:18;5.90;99.90
12408;DHT22;6268;48.188;17.134;2023-02-13T08:40:47;5.90;99.90
12408;DHT22;6268;48.188;17.134;2023-02-13T08:43:16;6.00;99.90
12408;DHT22;6268;48.188;17.134;2023-02-13T08:45:45;6.10;99.90
12408;DHT22;6268;48.188;17.134;2023-02-13T08:48:16;6.10;99.90
12408;DHT22;6268;48.188;17.134;2023-02-13T08:50:45;6.00;99.90
12408;DHT22;6268;48.188;17.134;2023-02-13T08:53:13;5.80;99.90
12408;DHT22;6268;48.188;17.134;2023-02-13T08:55:48;5.60;99.90
12408;DHT22;6268;48.188;17.134;2023-02-13T08:58:19;5.40;99.90
12408;DHT22;6268;48.188;17.134;2023-02-13T09:00:48;5.30;99.90
12408;DHT22;6268;48.188;17.134;2023-02-13T09:03:19;5.20;99.90
12408;DHT22;6268;48.188;17.134;2023-02-13T09:05:48;5.10;99.90
12408;DHT22;6268;48.188;17.134;2023-02-13T09:08:16;5.10;99.90
12408;DHT22;6268;48.188;17.134;2023-02-13T09:10:45;5.00;99.90
12408;DHT22;6268;48.188;17.134;2023-02-13T09:13:14;5.00;99.90
12408;DHT22;6268;48.188;17.134;2023-02-13T09:15:43;5.00;99.90
12408;DHT22;6268;48.188;17.134;2023-02-13T09:18:12;5.00;99.90
12408;DHT22;6268;48.188;17.134;2023-02-13T09:20:42;5.00;99.90
12408;DHT22;6268;48.188;17.134;2023-02-13T09:23:11;5.00;99.90
12408;DHT22;6268;48.188;17.134;2023-02-13T09:25:40;5.00;99.90
12408;DHT22;6268;48.188;17.134;2023-02-13T09:28:08;4.90;99.90
12408;DHT22;6268;48.188;17.134;2023-02-13T09:30:37;4.90;99.90
12408;DHT22;6268;48.188;17.134;2023-02-13T09:33:09;5.00;99.90
12408;DHT22;6268;48.188;17.134;2023-02-13T09:35:38;5.10;99.90
12408;DHT22;6268;48.188;17.134;2023-02-13T09:38:10;5.10;99.90
12408;DHT22;6268;48.188;17.134;2023-02-13T09:40:44;5.20;99.90
12408;DHT22;6268;48.188;17.134;2023-02-13T09:43:26;5.30;99.90
12408;DHT22;6268;48.188;17.134;2023-02-13T09:45:59;5.40;99.90
12408;DHT22;6268;48.188;17.134;2023-02-13T09:48:36;5.50;99.90
12408;DHT22;6268;48.188;17.134;2023-02-13T09:51:13;5.60;99.90
12408;DHT22;6268;48.188;17.134;2023-02-13T09:53:51;5.60;99.90
12408;DHT22;6268;48.188;17.134;2023-02-13T09:56:32;5.70;99.90
12408;DHT22;6268;48.188;17.134;2023-02-13T09:59:18;5.90;99.90
12408;DHT22;6268;48.188;17.134;2023-02-13T10:02:07;6.00;99.90
12408;DHT22;6268;48.188;17.134;2023-02-13T10:04:51;6.20;99.90
12408;DHT22;6268;48.188;17.134;2023-02-13T10:07:35;6.30;99.90
12408;DHT22;6268;48.188;17.134;2023-02-13T10:10:20;6.40;99.90
12408;DHT22;6268;48.188;17.134;2023-02-13T10:13:15;6.50;99.90
12408;DHT22;6268;48.188;17.134;2023-02-13T10:16:00;6.50;99.90
12408;DHT22;6268;48.188;17.134;2023-02-13T10:18:44;6.70;99.90
12408;DHT22;6268;48.188;17.134;2023-02-13T10:21:19;6.70;99.90
12408;DHT22;6268;48.188;17.134;2023-02-13T10:23:56;6.80;99.90
12408;DHT22;6268;48.188;17.134;2023-02-13T10:26:31;6.90;99.90
12408;DHT22;6268;48.188;17.134;2023-02-13T10:29:16;6.90;99.90
12408;DHT22;6268;48.188;17.134;2023-02-13T10:32:09;6.90;99.90
12408;DHT22;6268;48.188;17.134;2023-02-13T10:34:47;6.90;99.90
12408;DHT22;6268;48.188;17.134;2023-02-13T10:37:20;6.90;99.90
12408;DHT22;6268;48.188;17.134;2023-02-13T10:39:51;6.90;99.90
12408;DHT22;6268;48.188;17.134;2023-02-13T10:42:26;6.90;99.90
12408;DHT22;6268;48.188;17.134;2023-02-13T10:45:22;6.90;99.90
12408;DHT22;6268;48.188;17.134;2023-02-13T10:48:09;7.00;99.90
12408;DHT22;6268;48.188;17.134;2023-02-13T10:50:53;7.00;99.90
12408;DHT22;6268;48.188;17.134;2023-02-13T10:53:35;7.10;99.90
12408;DHT22;6268;48.188;17.134;2023-02-13T10:56:24;7.10;99.90
12408;DHT22;6268;48.188;17.134;2023-02-13T10:59:06;7.20;99.90
12408;DHT22;6268;48.188;17.134;2023-02-13T11:01:45;7.30;99.90
12408;DHT22;6268;48.188;17.134;2023-02-13T11:04:21;7.30;99.90
12408;DHT22;6268;48.188;17.134;2023-02-13T11:06:55;7.40;99.90
12408;DHT22;6268;48.188;17.134;2023-02-13T11:09:27;7.50;99.90
12408;DHT22;6268;48.188;17.134;2023-02-13T11:11:57;7.60;99.90
12408;DHT22;6268;48.188;17.134;2023-02-13T11:14:27;7.70;99.90
12408;DHT22;6268;48.188;17.134;2023-02-13T11:16:58;7.80;99.90
12408;DHT22;6268;48.188;17.134;2023-02-13T11:19:31;7.90;99.90
12408;DHT22;6268;48.188;17.134;2023-02-13T11:22:04;8.00;99.90
12408;DHT22;6268;48.188;17.134;2023-02-13T11:24:39;8.10;99.90
12408;DHT22;6268;48.188;17.134;2023-02-13T11:27:11;8.10;99.90
12408;DHT22;6268;48.188;17.134;2023-02-13T11:29:53;8.20;99.90
12408;DHT22;6268;48.188;17.134;2023-02-13T11:32:25;8.30;99.90
12408;DHT22;6268;48.188;17.134;2023-02-13T11:34:56;8.30;99.90
12408;DHT22;6268;48.188;17.134;2023-02-13T11:37:29;8.40;99.90
12408;DHT22;6268;48.188;17.134;2023-02-13T11:40:03;8.40;99.90
12408;DHT22;6268;48.188;17.134;2023-02-13T11:42:56;8.50;99.90
12408;DHT22;6268;48.188;17.134;2023-02-13T11:45:27;8.50;99.90
12408;DHT22;6268;48.188;17.134;2023-02-13T11:47:56;8.60;99.90
12408;DHT22;6268;48.188;17.134;2023-02-13T11:50:26;8.60;99.90
12408;DHT22;6268;48.188;17.134;2023-02-13T11:52:58;8.70;99.90
12408;DHT22;6268;48.188;17.134;2023-02-13T11:55:32;8.70;99.90
12408;DHT22;6268;48.188;17.134;2023-02-13T11:58:04;8.80;99.90
12408;DHT22;6268;48.188;17.134;2023-02-13T12:01:13;8.80;99.90
12408;DHT22;6268;48.188;17.134;2023-02-13T12:04:04;8.90;99.90
12408;DHT22;6268;48.188;17.134;2023-02-13T12:06:35;8.80;99.90
12408;DHT22;6268;48.188;17.134;2023-02-13T12:09:11;8.90;99.90
12408;DHT22;6268;48.188;17.134;2023-02-13T12:11:45;8.90;99.90
12408;DHT22;6268;48.188;17.134;2023-02-13T12:14:20;8.80;99.90
12408;DHT22;6268;48.188;17.134;2023-02-13T12:16:55;8.80;99.90
12408;DHT22;6268;48.188;17.134;2023-02-13T12:19:33;8.80;99.90
12408;DHT22;6268;48.188;17.134;2023-02-13T12:22:26;8.90;99.90
12408;DHT22;6268;48.188;17.134;2023-02-13T12:25:19;8.90;99.90
12408;DHT22;6268;48.188;17.134;2023-02-13T12:28:10;8.80;99.90
12408;DHT22;6268;48.188;17.134;2023-02-13T12:31:02;8.80;99.90
12408;DHT22;6268;48.188;17.134;2023-02-13T12:37:38;8.70;99.90
12408;DHT22;6268;48.188;17.134;2023-02-13T12:40:37;8.90;99.90
12408;DHT22;6268;48.188;17.134;2023-02-13T12:46:49;9.30;99.90
12408;DHT22;6268;48.188;17.134;2023-02-13T12:50:01;9.40;99.90
12408;DHT22;6268;48.188;17.134;2023-02-13T12:52:50;9.60;99.90
12408;DHT22;6268;48.188;17.134;2023-02-13T12:55:41;9.70;99.90
12408;DHT22;6268;48.188;17.134;2023-02-13T13:05:04;10.00;99.90
12408;DHT22;6268;48.188;17.134;2023-02-13T13:08:08;10.00;99.90
12408;DHT22;6268;48.188;17.134;2023-02-13T13:10:55;10.10;99.90
12408;DHT22;6268;48.188;17.134;2023-02-13T13:13:41;10.10;99.90
12408;DHT22;6268;48.188;17.134;2023-02-13T13:16:25;10.10;99.90
12408;DHT22;6268;48.188;17.134;2023-02-13T13:19:13;9.90;99.90
12408;DHT22;6268;48.188;17.134;2023-02-13T13:21:56;9.90;99.90
12408;DHT22;6268;48.188;17.134;2023-02-13T13:24:39;9.90;99.90
12408;DHT22;6268;48.188;17.134;2023-02-13T13:27:19;9.90;99.90
12408;DHT22;6268;48.188;17.134;2023-02-13T13:29:56;9.90;99.90
12408;DHT22;6268;48.188;17.134;2023-02-13T13:32:27;9.80;99.90
12408;DHT22;6268;48.188;17.134;2023-02-13T13:34:58;9.80;99.90
12408;DHT22;6268;48.188;17.134;2023-02-13T13:37:33;9.90;99.90
12408;DHT22;6268;48.188;17.134;2023-02-13T13:40:24;9.90;99.90
12408;DHT22;6268;48.188;17.134;2023-02-13T13:43:02;9.90;99.90
12408;DHT22;6268;48.188;17.134;2023-02-13T13:45:42;9.80;99.90
12408;DHT22;6268;48.188;17.134;2023-02-13T13:51:32;9.80;99.90
12408;DHT22;6268;48.188;17.134;2023-02-13T13:54:23;9.70;99.90
12408;DHT22;6268;48.188;17.134;2023-02-13T13:57:08;9.50;99.90
12408;DHT22;6268;48.188;17.134;2023-02-13T14:03:21;9.40;99.90
12408;DHT22;6268;48.188;17.134;2023-02-13T14:06:01;9.40;99.90
12408;DHT22;6268;48.188;17.134;2023-02-13T14:11:41;9.30;99.90
12408;DHT22;6268;48.188;17.134;2023-02-13T14:17:50;9.20;99.90
12408;DHT22;6268;48.188;17.134;2023-02-13T14:20:29;9.20;99.90
12408;DHT22;6268;48.188;17.134;2023-02-13T14:23:13;9.20;99.90
12408;DHT22;6268;48.188;17.134;2023-02-13T14:25:56;9.20;99.90
12408;DHT22;6268;48.188;17.134;2023-02-13T14:28:41;9.20;99.90
12408;DHT22;6268;48.188;17.134;2023-02-13T14:31:25;9.20;99.90
12408;DHT22;6268;48.188;17.134;2023-02-13T14:33:57;9.20;99.90
12408;DHT22;6268;48.188;17.134;2023-02-13T14:36:31;9.10;99.90
12408;DHT22;6268;48.188;17.134;2023-02-13T14:39:05;9.10;99.90
12408;DHT22;6268;48.188;17.134;2023-02-13T14:41:44;9.10;99.90
12408;DHT22;6268;48.188;17.134;2023-02-13T14:44:30;9.10;99.90
12408;DHT22;6268;48.188;17.134;2023-02-13T14:47:05;9.20;99.90
12408;DHT22;6268;48.188;17.134;2023-02-13T14:49:46;9.10;99.90
12408;DHT22;6268;48.188;17.134;2023-02-13T14:52:19;9.10;99.90
12408;DHT22;6268;48.188;17.134;2023-02-13T14:54:57;9.10;99.90
12408;DHT22;6268;48.188;17.134;2023-02-13T14:57:33;9.00;99.90
12408;DHT22;6268;48.188;17.134;2023-02-13T15:00:15;9.00;99.90
12408;DHT22;6268;48.188;17.134;2023-02-13T15:02:55;9.00;99.90
12408;DHT22;6268;48.188;17.134;2023-02-13T15:05:31;9.00;99.90
12408;DHT22;6268;48.188;17.134;2023-02-13T15:08:07;9.00;99.90
12408;DHT22;6268;48.188;17.134;2023-02-13T15:10:46;9.00;99.90
12408;DHT22;6268;48.188;17.134;2023-02-13T15:13:17;9.00;99.90
12408;DHT22;6268;48.188;17.134;2023-02-13T15:15:55;9.00;99.90
12408;DHT22;6268;48.188;17.134;2023-02-13T15:18:29;9.00;99.90
12408;DHT22;6268;48.188;17.134;2023-02-13T15:21:04;9.00;99.90
12408;DHT22;6268;48.188;17.134;2023-02-13T15:23:34;9.00;99.90
12408;DHT22;6268;48.188;17.134;2023-02-13T15:26:05;9.00;99.90
12408;DHT22;6268;48.188;17.134;2023-02-13T15:28:35;8.90;99.90
12408;DHT22;6268;48.188;17.134;2023-02-13T15:31:23;8.90;99.90
12408;DHT22;6268;48.188;17.134;2023-02-13T15:33:55;8.80;99.90
12408;DHT22;6268;48.188;17.134;2023-02-13T15:36:35;8.80;99.90
12408;DHT22;6268;48.188;17.134;2023-02-13T15:39:15;8.80;99.90
12408;DHT22;6268;48.188;17.134;2023-02-13T15:41:48;8.80;99.90
12408;DHT22;6268;48.188;17.134;2023-02-13T15:44:22;8.80;99.90
12408;DHT22;6268;48.188;17.134;2023-02-13T15:47:01;8.80;99.90
12408;DHT22;6268;48.188;17.134;2023-02-13T15:49:37;8.80;99.90
12408;DHT22;6268;48.188;17.134;2023-02-13T15:52:15;8.80;99.90
12408;DHT22;6268;48.188;17.134;2023-02-13T15:54:48;8.80;99.90
12408;DHT22;6268;48.188;17.134;2023-02-13T15:57:19;8.80;99.90
12408;DHT22;6268;48.188;17.134;2023-02-13T15:59:51;8.80;99.90
12408;DHT22;6268;48.188;17.134;2023-02-13T16:02:27;8.80;99.90
12408;DHT22;6268;48.188;17.134;2023-02-13T16:05:01;8.80;99.90
12408;DHT22;6268;48.188;17.134;2023-02-13T16:07:46;8.80;99.90
12408;DHT22;6268;48.188;17.134;2023-02-13T16:10:22;8.70;99.90
12408;DHT22;6268;48.188;17.134;2023-02-13T16:12:56;8.70;99.90
12408;DHT22;6268;48.188;17.134;2023-02-13T16:15:28;8.70;99.90
12408;DHT22;6268;48.188;17.134;2023-02-13T16:18:00;8.70;99.90
12408;DHT22;6268;48.188;17.134;2023-02-13T16:20:35;8.70;99.90
12408;DHT22;6268;48.188;17.134;2023-02-13T16:23:12;8.70;99.90
12408;DHT22;6268;48.188;17.134;2023-02-13T16:25:46;8.60;99.90
12408;DHT22;6268;48.188;17.134;2023-02-13T16:28:18;8.60;99.90
12408;DHT22;6268;48.188;17.134;2023-02-13T16:30:52;8.60;99.90
12408;DHT22;6268;48.188;17.134;2023-02-13T16:33:29;8.60;99.90
12408;DHT22;6268;48.188;17.134;2023-02-13T16:36:06;8.60;99.90
12408;DHT22;6268;48.188;17.134;2023-02-13T16:38:47;8.60;99.90
12408;DHT22;6268;48.188;17.134;2023-02-13T16:41:29;8.60;99.90
12408;DHT22;6268;48.188;17.134;2023-02-13T16:44:00;8.50;99.90
12408;DHT22;6268;48.188;17.134;2023-02-13T16:46:33;8.50;99.90
12408;DHT22;6268;48.188;17.134;2023-02-13T16:49:16;8.50;99.90
12408;DHT22;6268;48.188;17.134;2023-02-13T16:51:59;8.50;99.90
12408;DHT22;6268;48.188;17.134;2023-02-13T16:54:46;8.50;99.90
12408;DHT22;6268;48.188;17.134;2023-02-13T16:57:23;8.50;99.90
12408;DHT22;6268;48.188;17.134;2023-02-13T17:00:03;8.50;99.90
12408;DHT22;6268;48.188;17.134;2023-02-13T17:02:36;8.50;99.90
12408;DHT22;6268;48.188;17.134;2023-02-13T17:05:20;8.50;99.90
12408;DHT22;6268;48.188;17.134;2023-02-13T17:07:53;8.50;99.90
12408;DHT22;6268;48.188;17.134;2023-02-13T17:10:28;8.50;99.90
12408;DHT22;6268;48.188;17.134;2023-02-13T17:13:11;8.40;99.90
12408;DHT22;6268;48.188;17.134;2023-02-13T17:15:47;8.40;99.90